createdAt,value
2019-01-10T00:00:36.775Z,1.80
2019-01-10T00:03:06.007Z,3.07
2019-01-10T00:05:35.216Z,3.87
2019-01-10T00:08:04.520Z,1.83
2019-01-10T00:10:33.716Z,4.60
2019-01-10T00:13:02.957Z,4.47
2019-01-10T00:15:32.152Z,3.87
2019-01-10T00:18:01.375Z,1.87
2019-01-10T00:20:30.565Z,5.17
2019-01-10T00:22:59.756Z,1.10
2019-01-10T00:25:29.016Z,2.70
2019-01-10T00:27:58.292Z,3.60
2019-01-10T00:30:27.503Z,4.03
2019-01-10T00:32:56.709Z,5.13
2019-01-10T00:35:25.924Z,5.00
2019-01-10T00:37:55.095Z,4.00
2019-01-10T00:40:24.439Z,2.73
2019-01-10T00:42:53.624Z,3.10
2019-01-10T00:45:22.849Z,2.97
2019-01-10T00:47:52.041Z,3.70
2019-01-10T00:50:23.343Z,3.23
2019-01-10T00:52:52.524Z,2.10
2019-01-10T00:55:21.739Z,4.10
2019-01-10T00:57:50.938Z,2.50
2019-01-10T01:00:22.515Z,2.57
2019-01-10T01:02:51.716Z,4.27
2019-01-10T01:05:21.612Z,1.87
2019-01-10T01:07:50.850Z,5.23
2019-01-10T01:10:25.224Z,2.83
2019-01-10T01:12:58.649Z,3.77
2019-01-10T01:15:25.444Z,3.43
2019-01-10T01:17:54.644Z,5.43
2019-01-10T01:20:25.019Z,1.83
2019-01-10T01:22:54.312Z,2.47
2019-01-10T01:25:23.651Z,3.83
2019-01-10T01:27:52.816Z,2.30
2019-01-10T01:30:23.825Z,1.33
2019-01-10T01:32:53.380Z,2.53
2019-01-10T01:35:22.621Z,3.93
2019-01-10T01:37:51.839Z,2.10
2019-01-10T01:40:21.484Z,2.53
2019-01-10T01:42:50.872Z,0.87
2019-01-10T01:45:20.457Z,5.00
2019-01-10T01:47:49.684Z,2.33
2019-01-10T01:50:24.104Z,1.63
2019-01-10T01:52:53.783Z,1.53
2019-01-10T01:55:23.167Z,5.30
2019-01-10T01:57:52.376Z,4.40
2019-01-10T02:00:23.489Z,3.00
2019-01-10T02:02:52.860Z,2.23
2019-01-10T02:05:22.055Z,2.93
2019-01-10T02:07:53.044Z,6.67
2019-01-10T02:10:24.603Z,1.80
2019-01-10T02:12:54.008Z,2.03
2019-01-10T02:15:23.183Z,1.83
2019-01-10T02:17:52.409Z,1.70
2019-01-10T02:20:21.621Z,2.23
2019-01-10T02:22:52.026Z,6.10
2019-01-10T02:25:21.232Z,3.37
2019-01-10T02:27:50.446Z,3.43
2019-01-10T02:30:24.805Z,4.93
2019-01-10T02:32:54.028Z,3.30
2019-01-10T02:35:23.298Z,2.37
2019-01-10T02:37:52.495Z,3.23
2019-01-10T02:40:21.675Z,1.67
2019-01-10T02:42:50.884Z,4.50
2019-01-10T02:45:20.083Z,3.10
2019-01-10T02:47:49.302Z,2.70
2019-01-10T02:50:20.637Z,6.27
2019-01-10T02:52:49.872Z,1.93
2019-01-10T02:55:19.059Z,1.77
2019-01-10T02:57:48.377Z,4.33
2019-01-10T03:00:20.180Z,2.07
2019-01-10T03:02:49.523Z,4.83
2019-01-10T03:05:19.146Z,4.07
2019-01-10T03:07:48.345Z,2.03
2019-01-10T03:10:20.260Z,3.33
2019-01-10T03:12:49.500Z,3.93
2019-01-10T03:15:18.684Z,4.23
2019-01-10T03:17:47.899Z,4.40
2019-01-10T03:20:19.890Z,2.93
2019-01-10T03:22:49.139Z,4.13
2019-01-10T03:25:18.349Z,3.63
2019-01-10T03:27:47.584Z,4.33
2019-01-10T03:30:18.434Z,4.53
2019-01-10T03:32:47.613Z,3.83
2019-01-10T03:35:16.925Z,3.47
2019-01-10T03:37:46.102Z,1.67
2019-01-10T03:40:17.480Z,1.93
2019-01-10T03:42:46.699Z,2.47
2019-01-10T03:45:17.259Z,3.03
2019-01-10T03:47:46.437Z,3.57
2019-01-10T03:50:16.996Z,2.53
2019-01-10T03:52:46.313Z,4.20
2019-01-10T03:55:15.865Z,2.93
2019-01-10T03:57:45.359Z,4.63
2019-01-10T04:00:17.697Z,2.67
2019-01-10T04:02:48.363Z,3.03
2019-01-10T04:05:17.642Z,2.77
2019-01-10T04:07:46.944Z,2.37
2019-01-10T04:10:16.537Z,2.67
2019-01-10T04:12:45.762Z,3.87
2019-01-10T04:15:15.404Z,1.30
2019-01-10T04:17:44.626Z,3.83
2019-01-10T04:20:15.391Z,1.57
2019-01-10T04:22:44.567Z,4.40
2019-01-10T04:25:14.564Z,3.70
2019-01-10T04:27:43.755Z,4.43
2019-01-10T04:30:15.941Z,5.00
2019-01-10T04:32:45.256Z,4.23
2019-01-10T04:35:14.617Z,5.73
2019-01-10T04:37:43.831Z,3.27
2019-01-10T04:40:15.851Z,4.27
2019-01-10T04:42:45.028Z,4.27
2019-01-10T04:45:14.444Z,4.10
2019-01-10T04:47:43.675Z,5.80
2019-01-10T04:50:13.140Z,6.10
2019-01-10T04:52:42.375Z,7.77
2019-01-10T04:55:12.295Z,7.20
2019-01-10T04:57:41.491Z,3.90
2019-01-10T05:00:17.578Z,6.63
2019-01-10T05:02:46.792Z,5.97
2019-01-10T05:05:15.973Z,8.10
2019-01-10T05:07:45.198Z,10.33
2019-01-10T05:10:14.397Z,5.27
2019-01-10T05:12:43.764Z,8.87
2019-01-10T05:15:13.237Z,7.27
2019-01-10T05:17:42.450Z,8.40
2019-01-10T05:20:14.596Z,9.53
2019-01-10T05:22:43.834Z,8.90
2019-01-10T05:25:13.095Z,5.00
2019-01-10T05:27:42.328Z,7.20
2019-01-10T05:30:23.258Z,5.43
2019-01-10T05:32:52.476Z,8.80
2019-01-10T05:35:21.676Z,7.00
2019-01-10T05:37:50.872Z,7.90
2019-01-10T05:40:20.158Z,7.17
2019-01-10T05:42:49.336Z,7.43
2019-01-10T05:45:19.100Z,5.77
2019-01-10T05:47:48.302Z,6.33
2019-01-10T05:50:18.222Z,6.57
2019-01-10T05:52:47.670Z,9.03
2019-01-10T05:55:19.042Z,8.27
2019-01-10T05:57:48.258Z,11.07
2019-01-10T06:00:23.215Z,5.43
2019-01-10T06:02:52.401Z,9.57
2019-01-10T06:05:21.939Z,8.73
2019-01-10T06:07:51.209Z,9.17
2019-01-10T06:10:25.581Z,8.07
2019-01-10T06:12:54.788Z,8.90
2019-01-10T06:15:24.057Z,6.13
2019-01-10T06:17:53.300Z,12.27
2019-01-10T06:20:22.886Z,8.47
2019-01-10T06:22:52.077Z,9.40
2019-01-10T06:25:21.299Z,9.47
2019-01-10T06:27:50.476Z,8.50
2019-01-10T06:30:21.860Z,8.60
2019-01-10T06:32:51.060Z,9.93
2019-01-10T06:35:21.640Z,10.30
2019-01-10T06:37:50.854Z,9.27
2019-01-10T06:40:21.472Z,10.53
2019-01-10T06:42:50.687Z,8.13
2019-01-10T06:45:19.925Z,10.23
2019-01-10T06:47:49.117Z,11.73
2019-01-10T06:50:18.487Z,9.33
2019-01-10T06:52:47.744Z,8.30
2019-01-10T06:55:16.981Z,11.30
2019-01-10T06:57:46.173Z,7.77
2019-01-10T07:00:25.569Z,11.93
2019-01-10T07:02:54.976Z,7.97
2019-01-10T07:05:27.182Z,5.97
2019-01-10T07:07:57.086Z,9.53
2019-01-10T07:10:29.104Z,9.77
2019-01-10T07:12:58.548Z,10.20
2019-01-10T07:15:28.016Z,6.70
2019-01-10T07:17:57.218Z,7.43
2019-01-10T07:20:26.417Z,8.17
2019-01-10T07:22:55.789Z,10.03
2019-01-10T07:25:24.964Z,8.17
2019-01-10T07:27:56.468Z,13.77
2019-01-10T07:30:35.463Z,7.47
2019-01-10T07:32:57.951Z,8.43
2019-01-10T07:35:27.127Z,7.50
2019-01-10T07:37:57.039Z,10.10
2019-01-10T07:40:27.388Z,9.77
2019-01-10T07:42:57.100Z,8.87
2019-01-10T07:45:27.711Z,5.73
2019-01-10T07:47:56.905Z,14.30
2019-01-10T07:50:30.920Z,8.47
2019-01-10T07:53:00.118Z,7.77
2019-01-10T07:55:29.323Z,8.17
2019-01-10T07:57:58.532Z,9.73
2019-01-10T08:00:27.707Z,10.73
2019-01-10T08:02:56.952Z,10.57
2019-01-10T08:05:26.138Z,7.13
2019-01-10T08:07:55.349Z,11.93
2019-01-10T08:10:24.556Z,10.93
2019-01-10T08:12:53.769Z,8.27
2019-01-10T08:15:22.972Z,9.67
2019-01-10T08:17:52.172Z,10.30
2019-01-10T08:20:21.363Z,13.80
2019-01-10T08:22:50.850Z,10.43
2019-01-10T08:25:20.076Z,15.40
2019-01-10T08:27:49.267Z,7.27
2019-01-10T08:30:22.456Z,8.43
2019-01-10T08:32:51.661Z,14.07
2019-01-10T08:35:23.710Z,9.47
2019-01-10T08:37:52.871Z,9.37
2019-01-10T08:40:23.433Z,7.33
2019-01-10T08:42:52.649Z,9.20
2019-01-10T08:45:22.328Z,13.80
2019-01-10T08:47:51.725Z,8.47
2019-01-10T08:50:25.631Z,8.77
2019-01-10T08:52:54.862Z,10.03
2019-01-10T08:55:24.348Z,12.17
2019-01-10T08:57:53.541Z,7.47
2019-01-10T09:00:23.992Z,8.90
2019-01-10T09:02:53.541Z,8.07
2019-01-10T09:05:22.758Z,13.03
2019-01-10T09:07:51.959Z,12.10
2019-01-10T09:10:32.104Z,9.87
2019-01-10T09:13:01.320Z,10.40
2019-01-10T09:15:34.707Z,8.73
2019-01-10T09:18:01.365Z,9.77
2019-01-10T09:20:30.672Z,7.40
2019-01-10T09:22:59.886Z,11.67
2019-01-10T09:25:29.090Z,10.93
2019-01-10T09:27:58.348Z,6.73
2019-01-10T09:30:27.547Z,6.60
2019-01-10T09:32:56.738Z,7.13
2019-01-10T09:35:25.952Z,9.93
2019-01-10T09:37:55.159Z,10.97
2019-01-10T09:40:24.356Z,6.07
2019-01-10T09:42:53.570Z,9.63
2019-01-10T09:45:24.340Z,7.13
2019-01-10T09:47:53.571Z,8.17
2019-01-10T09:50:23.752Z,10.07
2019-01-10T09:52:53.850Z,5.87
2019-01-10T09:55:23.065Z,5.50
2019-01-10T09:57:52.242Z,6.00
2019-01-10T10:00:29.623Z,6.77
2019-01-10T10:02:58.964Z,7.23
2019-01-10T10:05:28.229Z,8.43
2019-01-10T10:07:57.447Z,7.40
2019-01-10T10:10:26.647Z,5.13
2019-01-10T10:12:55.828Z,6.60
2019-01-10T10:15:25.072Z,7.57
2019-01-10T10:17:54.269Z,6.10
2019-01-10T10:20:25.119Z,7.40
2019-01-10T10:22:54.632Z,6.33
2019-01-10T10:25:25.974Z,9.97
2019-01-10T10:27:54.668Z,8.43
2019-01-10T10:30:24.006Z,9.40
2019-01-10T10:32:53.203Z,8.30
2019-01-10T10:35:22.669Z,6.70
2019-01-10T10:37:51.911Z,7.03
2019-01-10T10:40:22.172Z,8.77
2019-01-10T10:42:52.407Z,9.80
2019-01-10T10:45:22.456Z,12.73
2019-01-10T10:47:51.918Z,9.23
2019-01-10T10:50:26.673Z,5.07
2019-01-10T10:52:55.864Z,8.77
2019-01-10T10:55:25.100Z,7.83
2019-01-10T10:57:54.556Z,5.77
2019-01-10T11:00:26.373Z,7.83
2019-01-10T11:02:55.800Z,11.83
2019-01-10T11:05:25.003Z,6.37
2019-01-10T11:07:54.204Z,9.20
2019-01-10T11:10:23.480Z,7.80
2019-01-10T11:12:52.664Z,7.73
2019-01-10T11:15:21.895Z,7.63
2019-01-10T11:17:51.097Z,10.40
2019-01-10T11:20:22.360Z,9.03
2019-01-10T11:22:51.779Z,8.57
2019-01-10T11:25:23.380Z,10.93
2019-01-10T11:27:52.570Z,8.83
2019-01-10T11:30:22.020Z,6.60
2019-01-10T11:32:53.541Z,8.40
2019-01-10T11:35:22.082Z,6.13
2019-01-10T11:37:51.291Z,7.57
2019-01-10T11:40:21.833Z,9.27
2019-01-10T11:42:51.099Z,7.83
2019-01-10T11:45:25.531Z,7.90
2019-01-10T11:47:54.740Z,9.33
2019-01-10T11:50:23.939Z,7.67
2019-01-10T11:52:53.235Z,7.47
2019-01-10T11:55:22.628Z,12.13
2019-01-10T11:57:51.921Z,7.97
2019-01-10T12:00:29.657Z,9.63
2019-01-10T12:02:59.757Z,8.10
2019-01-10T12:05:29.007Z,7.47
2019-01-10T12:07:58.228Z,8.93
2019-01-10T12:10:27.408Z,7.77
2019-01-10T12:12:56.616Z,4.40
2019-01-10T12:15:25.808Z,8.30
2019-01-10T12:17:55.071Z,6.57
2019-01-10T12:20:24.500Z,10.03
2019-01-10T12:22:53.684Z,9.73
2019-01-10T12:25:22.936Z,6.13
2019-01-10T12:27:52.188Z,6.00
2019-01-10T12:30:24.064Z,7.63
2019-01-10T12:32:53.328Z,10.30
2019-01-10T12:35:23.223Z,4.33
2019-01-10T12:37:52.424Z,6.60
2019-01-10T12:40:21.719Z,6.90
2019-01-10T12:42:50.993Z,9.37
2019-01-10T12:45:20.852Z,8.13
2019-01-10T12:47:50.020Z,6.83
2019-01-10T12:50:24.332Z,10.07
2019-01-10T12:52:53.687Z,7.40
2019-01-10T12:55:22.888Z,6.93
2019-01-10T12:57:52.119Z,9.33
2019-01-10T13:00:22.143Z,7.30
2019-01-10T13:02:52.033Z,12.33
2019-01-10T13:05:21.240Z,11.73
2019-01-10T13:07:50.467Z,9.37
2019-01-10T13:10:20.221Z,7.37
2019-01-10T13:12:50.176Z,8.83
2019-01-10T13:15:21.511Z,7.03
2019-01-10T13:17:50.745Z,7.47
2019-01-10T13:20:19.974Z,7.87
2019-01-10T13:22:49.275Z,6.00
2019-01-10T13:25:19.236Z,7.10
2019-01-10T13:27:49.035Z,5.30
2019-01-10T13:30:22.988Z,4.40
2019-01-10T13:32:52.388Z,6.27
2019-01-10T13:35:21.588Z,9.03
2019-01-10T13:37:50.953Z,8.77
2019-01-10T13:40:20.388Z,7.47
2019-01-10T13:42:49.588Z,8.20
2019-01-10T13:45:19.116Z,9.20
2019-01-10T13:47:49.670Z,6.53
2019-01-10T13:50:29.882Z,5.43
2019-01-10T13:52:59.081Z,8.80
2019-01-10T13:55:28.430Z,8.03
2019-01-10T13:57:57.632Z,10.97
2019-01-10T14:00:35.504Z,8.33
2019-01-10T14:03:02.380Z,9.30
2019-01-10T14:05:31.669Z,7.63
2019-01-10T14:08:00.912Z,7.90
2019-01-10T14:10:30.253Z,6.43
2019-01-10T14:12:59.456Z,5.27
2019-01-10T14:15:32.035Z,7.63
2019-01-10T14:18:01.268Z,5.67
2019-01-10T14:20:30.488Z,8.23
2019-01-10T14:22:59.662Z,6.73
2019-01-10T14:25:29.125Z,6.33
2019-01-10T14:27:59.858Z,7.60
2019-01-10T14:30:33.229Z,9.67
2019-01-10T14:33:02.960Z,8.77
2019-01-10T14:35:32.223Z,9.40
2019-01-10T14:38:01.519Z,10.60
2019-01-10T14:40:31.112Z,7.77
2019-01-10T14:43:00.392Z,9.77
2019-01-10T14:45:29.560Z,10.00
2019-01-10T14:48:01.849Z,10.17
2019-01-10T14:50:29.698Z,7.60
2019-01-10T14:52:58.917Z,9.17
2019-01-10T14:55:28.153Z,10.90
2019-01-10T14:57:57.352Z,10.93
2019-01-10T15:00:26.741Z,7.03
2019-01-10T15:02:56.032Z,8.73
2019-01-10T15:05:25.244Z,7.93
2019-01-10T15:07:54.528Z,8.03
2019-01-10T15:10:23.716Z,9.17
2019-01-10T15:12:52.936Z,7.83
2019-01-10T15:15:23.229Z,6.97
2019-01-10T15:17:52.412Z,12.80
2019-01-10T15:20:28.066Z,10.73
2019-01-10T15:22:57.219Z,8.20
2019-01-10T15:25:26.417Z,8.97
2019-01-10T15:27:55.590Z,8.67
2019-01-10T15:30:26.800Z,12.53
2019-01-10T15:32:56.098Z,12.97
2019-01-10T15:35:25.456Z,7.10
2019-01-10T15:37:54.668Z,11.23
2019-01-10T15:40:29.283Z,15.27
2019-01-10T15:42:58.459Z,10.10
2019-01-10T15:45:27.943Z,7.43
2019-01-10T15:47:57.138Z,13.33
2019-01-10T15:50:26.357Z,7.07
2019-01-10T15:52:55.584Z,9.60
2019-01-10T15:55:24.872Z,12.50
2019-01-10T15:57:54.054Z,14.70
2019-01-10T16:00:24.078Z,9.57
2019-01-10T16:02:53.333Z,8.37
2019-01-10T16:05:22.549Z,9.30
2019-01-10T16:07:51.772Z,8.17
2019-01-10T16:10:21.255Z,7.47
2019-01-10T16:12:50.459Z,8.87
2019-01-10T16:15:21.532Z,31.43
2019-01-10T16:17:50.753Z,24.67
2019-01-10T16:20:19.929Z,16.47
2019-01-10T16:22:49.315Z,10.00
2019-01-10T16:25:19.703Z,13.37
2019-01-10T16:27:49.198Z,9.90
2019-01-10T16:30:23.520Z,12.90
2019-01-10T16:32:52.715Z,16.67
2019-01-10T16:35:21.912Z,12.90
2019-01-10T16:37:51.153Z,9.07
2019-01-10T16:40:20.331Z,7.67
2019-01-10T16:42:49.515Z,8.23
2019-01-10T16:45:21.432Z,9.37
2019-01-10T16:47:50.650Z,13.33
2019-01-10T16:50:20.116Z,11.80
2019-01-10T16:52:49.339Z,7.43
2019-01-10T16:55:18.636Z,9.37
2019-01-10T16:57:47.872Z,8.90
2019-01-10T17:00:29.447Z,9.17
2019-01-10T17:02:58.675Z,7.10
2019-01-10T17:05:27.928Z,9.67
2019-01-10T17:07:57.205Z,6.17
2019-01-10T17:10:26.423Z,6.23
2019-01-10T17:12:55.660Z,7.57
2019-01-10T17:15:24.835Z,5.77
2019-01-10T17:17:54.267Z,7.77
2019-01-10T17:20:24.711Z,8.77
2019-01-10T17:22:53.907Z,8.23
2019-01-10T17:25:23.192Z,8.13
2019-01-10T17:27:52.399Z,8.63
2019-01-10T17:30:29.509Z,7.80
2019-01-10T17:32:59.619Z,7.73
2019-01-10T17:35:30.988Z,7.20
2019-01-10T17:38:01.648Z,12.30
2019-01-10T17:40:31.401Z,6.77
2019-01-10T17:43:00.702Z,13.63
2019-01-10T17:45:32.328Z,8.17
2019-01-10T17:48:01.582Z,7.83
2019-01-10T17:50:30.777Z,11.47
2019-01-10T17:52:59.986Z,8.97
2019-01-10T17:55:29.184Z,11.47
2019-01-10T17:57:58.463Z,8.90
2019-01-10T18:00:29.424Z,10.77
2019-01-10T18:02:58.675Z,11.53
2019-01-10T18:05:28.038Z,7.93
2019-01-10T18:07:57.264Z,11.90
2019-01-10T18:10:26.467Z,10.43
2019-01-10T18:12:55.764Z,11.17
2019-01-10T18:15:25.476Z,10.87
2019-01-10T18:17:54.684Z,10.43
2019-01-10T18:20:32.108Z,12.30
2019-01-10T18:23:01.401Z,15.73
2019-01-10T18:25:30.589Z,16.63
2019-01-10T18:27:59.821Z,12.57
2019-01-10T18:30:29.102Z,11.03
2019-01-10T18:32:58.315Z,14.37
2019-01-10T18:35:27.708Z,13.93
2019-01-10T18:37:56.941Z,13.30
2019-01-10T18:40:26.367Z,11.10
2019-01-10T18:42:55.580Z,12.63
2019-01-10T18:45:27.626Z,15.30
2019-01-10T18:47:57.502Z,13.60
2019-01-10T18:50:26.957Z,15.63
2019-01-10T18:52:56.161Z,14.77
2019-01-10T18:55:25.377Z,14.10
2019-01-10T18:57:54.615Z,13.10
2019-01-10T19:00:26.016Z,16.40
2019-01-10T19:02:56.005Z,14.63
2019-01-10T19:05:25.471Z,15.63
2019-01-10T19:07:55.069Z,19.63
2019-01-10T19:10:24.387Z,17.00
2019-01-10T19:12:53.634Z,25.70
2019-01-10T19:15:22.913Z,15.30
2019-01-10T19:17:52.100Z,24.07
2019-01-10T19:20:23.442Z,19.20
2019-01-10T19:22:52.644Z,19.07
2019-01-10T19:25:21.835Z,19.07
2019-01-10T19:27:51.172Z,24.13
2019-01-10T19:30:22.871Z,20.13
2019-01-10T19:32:52.133Z,17.50
2019-01-10T19:35:21.308Z,18.43
2019-01-10T19:37:50.547Z,21.63
2019-01-10T19:40:20.619Z,18.83
2019-01-10T19:42:49.869Z,24.23
2019-01-10T19:45:19.953Z,22.30
2019-01-10T19:47:49.196Z,23.57
2019-01-10T19:50:20.724Z,24.70
2019-01-10T19:52:50.150Z,21.90
2019-01-10T19:55:20.029Z,23.17
2019-01-10T19:57:49.260Z,23.73
2019-01-10T20:00:24.478Z,25.90
2019-01-10T20:02:53.793Z,21.63
2019-01-10T20:05:23.091Z,26.90
2019-01-10T20:07:52.620Z,28.47
2019-01-10T20:10:21.924Z,28.23
2019-01-10T20:12:51.223Z,28.17
2019-01-10T20:15:21.336Z,24.63
2019-01-10T20:17:50.552Z,29.90
2019-01-10T20:20:28.783Z,24.30
2019-01-10T20:22:58.507Z,26.43
2019-01-10T20:25:27.818Z,32.57
2019-01-10T20:27:57.316Z,30.43
2019-01-10T20:30:26.547Z,25.63
2019-01-10T20:32:56.091Z,24.00
2019-01-10T20:35:25.315Z,25.20
2019-01-10T20:37:54.520Z,30.33
2019-01-10T20:40:23.736Z,28.70
2019-01-10T20:42:52.960Z,25.37
2019-01-10T20:45:22.383Z,28.00
2019-01-10T20:47:51.580Z,24.33
2019-01-10T20:50:20.815Z,25.93
2019-01-10T20:52:50.079Z,25.07
2019-01-10T20:55:19.503Z,26.60
2019-01-10T20:57:48.852Z,23.10
2019-01-10T21:00:20.284Z,26.10
2019-01-10T21:02:50.180Z,25.73
2019-01-10T21:05:20.018Z,27.63
2019-01-10T21:07:50.428Z,29.77
2019-01-10T21:10:20.035Z,33.93
2019-01-10T21:12:49.286Z,33.77
2019-01-10T21:15:23.439Z,32.47
2019-01-10T21:17:52.693Z,25.43
2019-01-10T21:20:22.175Z,30.97
2019-01-10T21:22:51.663Z,29.87
2019-01-10T21:25:20.920Z,30.43
2019-01-10T21:27:50.227Z,35.87
2019-01-10T21:30:20.350Z,35.17
2019-01-10T21:32:50.421Z,38.33
2019-01-10T21:35:20.225Z,35.77
2019-01-10T21:37:49.586Z,32.30
2019-01-10T21:40:20.932Z,36.47
2019-01-10T21:42:51.882Z,35.77
2019-01-10T21:45:21.572Z,39.97
2019-01-10T21:47:50.782Z,38.70
2019-01-10T21:50:22.196Z,46.90
2019-01-10T21:52:51.443Z,43.63
2019-01-10T21:55:21.132Z,49.50
2019-01-10T21:57:50.566Z,55.97
2019-01-10T22:00:23.833Z,53.07
2019-01-10T22:02:53.077Z,56.50
2019-01-10T22:05:22.495Z,55.50
2019-01-10T22:07:51.708Z,51.60
2019-01-10T22:10:21.048Z,69.50
2019-01-10T22:12:50.405Z,57.87
2019-01-10T22:15:19.640Z,63.47
2019-01-10T22:17:48.904Z,66.13
2019-01-10T22:20:18.628Z,60.67
2019-01-10T22:22:47.939Z,62.77
2019-01-10T22:25:17.162Z,77.70
2019-01-10T22:27:46.365Z,64.10
2019-01-10T22:30:20.997Z,64.70
2019-01-10T22:32:50.291Z,83.43
2019-01-10T22:35:21.357Z,67.93
2019-01-10T22:37:50.667Z,77.17
2019-01-10T22:40:21.206Z,82.63
2019-01-10T22:42:50.532Z,83.60
2019-01-10T22:45:19.736Z,78.13
2019-01-10T22:47:49.077Z,86.57
2019-01-10T22:50:20.274Z,75.40
2019-01-10T22:52:49.567Z,80.03
2019-01-10T22:55:18.831Z,73.13
2019-01-10T22:57:48.163Z,75.87
2019-01-10T23:00:40.843Z,67.73
2019-01-10T23:03:10.184Z,74.97
2019-01-10T23:05:43.929Z,72.93
2019-01-10T23:08:13.143Z,71.63
2019-01-10T23:10:42.560Z,79.20
2019-01-10T23:13:11.990Z,82.57
2019-01-10T23:15:41.184Z,84.03
2019-01-10T23:18:10.699Z,80.23
2019-01-10T23:20:39.968Z,86.20
2019-01-10T23:23:10.590Z,87.10
2019-01-10T23:25:39.871Z,87.10
2019-01-10T23:28:09.693Z,102.00
2019-01-10T23:30:50.004Z,76.37
2019-01-10T23:33:19.732Z,87.73
2019-01-10T23:35:51.463Z,81.97
2019-01-10T23:38:24.459Z,84.70
2019-01-10T23:40:53.663Z,82.03
2019-01-10T23:43:22.830Z,82.33
2019-01-10T23:45:52.056Z,80.33
2019-01-10T23:48:21.247Z,88.07
2019-01-10T23:50:50.496Z,76.83
2019-01-10T23:53:19.745Z,86.23
2019-01-10T23:55:48.947Z,78.83
2019-01-10T23:58:18.129Z,81.93
